Time;durP1;ratioP1;P1;durP2;ratioP2;P2;SDS_P1;SDS_P2;PMS_P1;PMS_P2;Temp;Humidity;BMP_temperature;BMP_pressure;BME280_temperature;BME280_humidity;BME280_pressure;Samples;Min_cycle;Max_cycle;Signal;HPM_P1;HPM_P2
2023/07/13 00:00:23;;;;;;;;;;;;;;;;;;5009937;28;8329;-88
2023/07/13 00:02:48;;;;;;;;;;;;;;;;;;5009222;28;7156;-85
2023/07/13 00:05:14;;;;;;;;;;;;;;;;;;5010120;28;7260;-87
2023/07/13 00:07:39;;;;;;;;;;;;;;;;;;5009814;28;8432;-85
2023/07/13 00:10:06;;;;;;;;;;;;;;;;;;5009625;28;8491;-86
2023/07/13 00:12:34;;;;;;;;;;;;;;;;;;5009580;28;8285;-85
2023/07/13 00:15:01;;;;;;;;;;;;;;;;;;5009817;28;8406;-85
2023/07/13 00:17:27;;;;;;;;;;;;;;;;;;5009492;28;7115;-86
2023/07/13 00:19:55;;;;;;;;;;;;;;;;;;5009575;28;7059;-86
2023/07/13 00:22:21;;;;;;;;;;;;;;;;;;5009698;28;7204;-86
2023/07/13 00:24:47;;;;;;;;;;;;;;;;;;5009222;28;8681;-87
2023/07/13 00:27:14;;;;;;;;;;;;;;;;;;5009512;28;7057;-86
2023/07/13 00:29:40;;;;;;;;;;;;;;;;;;5009307;28;8503;-86
2023/07/13 00:32:06;;;;;;;;;;;;;;;;;;5009536;28;6824;-86
2023/07/13 00:34:36;;;;;;;;;;;;;;;;;;5009249;28;7092;-86
2023/07/13 00:37:02;;;;;;;;;;;;;;;;;;5009025;28;7162;-86
2023/07/13 00:39:28;;;;;;;;;;;;;;;;;;5009417;28;7162;-87
2023/07/13 00:41:53;;;;;;;;;;;;;;;;;;5009179;28;8358;-88
2023/07/13 00:44:23;;;;;;;;;;;;;;;;;;5009314;28;9315;-86
2023/07/13 00:46:49;;;;;;;;;;;;;;;;;;5009294;28;7158;-85
2023/07/13 00:49:19;;;;;;;;;;;;;;;;;;5009015;28;8550;-85
2023/07/13 00:51:50;;;;;;;;;;;;;;;;;;5011553;28;8504;-85
2023/07/13 00:54:21;;;;;;;;;;;;;;;;;;5012465;28;7061;-85
2023/07/13 00:56:49;;;;;;;;;;;;;;;;;;4996158;28;8415;-86
2023/07/13 00:59:17;;;;;;;;;;;;;;;;;;4995934;28;8416;-85
2023/07/13 01:01:43;;;;;;;;;;;;;;;;;;4996171;28;8962;-86
2023/07/13 01:04:09;;;;;;;;;;;;;;;;;;4995562;28;8410;-85
2023/07/13 01:06:37;;;;;;;;;;;;;;;;;;4995909;28;7097;-86
2023/07/13 01:09:03;;;;;;;;;;;;;;;;;;4995616;28;7172;-86
2023/07/13 01:11:28;;;;;;;;;;;;;;;;;;4995937;28;8641;-85
2023/07/13 01:13:54;;;;;;;;;;;;;;;;;;4996706;28;7045;-86
2023/07/13 01:16:30;;;;;;;;;;;;;;;;;;4999898;28;8409;-85
2023/07/13 01:19:01;;;;;;;;;;;;;;;;;;4999988;28;6848;-86
2023/07/13 01:21:28;;;;;;;;;;;;;;;;;;4999880;28;8617;-86
2023/07/13 01:23:54;;;;;;;;;;;;;;;;;;4999291;28;7048;-85
2023/07/13 01:26:20;;;;;;;;;;;;;;;;;;4999328;28;7344;-85
2023/07/13 01:28:45;;;;;;;;;;;;;;;;;;4999718;28;8573;-84
2023/07/13 01:31:11;;;;;;;;;;;;;;;;;;4999537;28;8366;-84
2023/07/13 01:33:41;;;;;;;;;;;;;;;;;;4999713;28;7125;-85
2023/07/13 01:36:07;;;;;;;;;;;;;;;;;;4999468;28;8521;-84
2023/07/13 01:38:33;;;;;;;;;;;;;;;;;;4999321;28;7037;-84
2023/07/13 01:40:59;;;;;;;;;;;;;;;;;;4999245;28;7082;-84
2023/07/13 01:43:25;;;;;;;;;;;;;;;;;;4999261;28;8405;-85
2023/07/13 01:45:51;;;;;;;;;;;;;;;;;;4999238;28;7151;-83
2023/07/13 01:48:16;;;;;;;;;;;;;;;;;;4999366;28;7180;-83
2023/07/13 01:50:42;;;;;;;;;;;;;;;;;;4999132;28;8304;-84
2023/07/13 01:53:08;;;;;;;;;;;;;;;;;;4995490;28;6891;-84
2023/07/13 01:55:35;;;;;;;;;;;;;;;;;;5012059;28;7926;-84
2023/07/13 01:58:01;;;;;;;;;;;;;;;;;;5012215;28;8419;-84
2023/07/13 02:00:27;;;;;;;;;;;;;;;;;;5011827;28;7162;-85
2023/07/13 02:02:53;;;;;;;;;;;;;;;;;;5011859;28;8450;-86
2023/07/13 02:05:18;;;;;;;;;;;;;;;;;;5011924;28;8444;-87
2023/07/13 02:07:44;;;;;;;;;;;;;;;;;;5011995;28;8379;-84
2023/07/13 02:10:10;;;;;;;;;;;;;;;;;;5011979;28;7408;-86
2023/07/13 02:12:37;;;;;;;;;;;;;;;;;;5011910;28;7058;-86
2023/07/13 02:15:04;;;;;;;;;;;;;;;;;;5012266;28;7188;-85
2023/07/13 02:17:30;;;;;;;;;;;;;;;;;;5011979;28;8323;-88
2023/07/13 02:19:56;;;;;;;;;;;;;;;;;;5012035;28;7321;-86
2023/07/13 02:22:21;;;;;;;;;;;;;;;;;;5011976;28;7408;-87
2023/07/13 02:24:47;;;;;;;;;;;;;;;;;;5010858;28;8377;-88
2023/07/13 02:27:13;;;;;;;;;;;;;;;;;;5011671;28;8691;-86
2023/07/13 02:29:38;;;;;;;;;;;;;;;;;;5011557;28;7231;-85
2023/07/13 02:32:04;;;;;;;;;;;;;;;;;;5011359;28;8325;-85
2023/07/13 02:34:30;;;;;;;;;;;;;;;;;;5011565;28;7233;-87
2023/07/13 02:36:55;;;;;;;;;;;;;;;;;;5011425;28;8467;-87
2023/07/13 02:39:21;;;;;;;;;;;;;;;;;;5011156;28;8362;-84
2023/07/13 02:41:46;;;;;;;;;;;;;;;;;;5011213;28;8406;-85
2023/07/13 02:44:13;;;;;;;;;;;;;;;;;;5011418;28;7003;-85
2023/07/13 02:46:39;;;;;;;;;;;;;;;;;;5010610;28;8538;-84
2023/07/13 02:49:06;;;;;;;;;;;;;;;;;;5010738;28;7016;-84
2023/07/13 02:51:33;;;;;;;;;;;;;;;;;;5011376;28;8399;-83
2023/07/13 02:54:00;;;;;;;;;;;;;;;;;;5011504;28;7095;-84
2023/07/13 02:56:27;;;;;;;;;;;;;;;;;;4997923;28;7054;-84
2023/07/13 02:58:54;;;;;;;;;;;;;;;;;;5014061;28;8589;-83
2023/07/13 03:01:21;;;;;;;;;;;;;;;;;;5014016;28;7360;-84
2023/07/13 03:03:48;;;;;;;;;;;;;;;;;;5013958;28;8450;-83
2023/07/13 03:06:14;;;;;;;;;;;;;;;;;;5014148;28;8987;-84
2023/07/13 03:08:40;;;;;;;;;;;;;;;;;;5014542;28;8340;-85
2023/07/13 03:11:10;;;;;;;;;;;;;;;;;;5014317;28;7126;-85
2023/07/13 03:13:37;;;;;;;;;;;;;;;;;;5013897;28;8515;-85
2023/07/13 03:16:03;;;;;;;;;;;;;;;;;;5014200;28;8454;-84
2023/07/13 03:18:29;;;;;;;;;;;;;;;;;;5014329;28;7191;-84
2023/07/13 03:20:55;;;;;;;;;;;;;;;;;;5014177;28;7048;-85
2023/07/13 03:23:22;;;;;;;;;;;;;;;;;;5013473;28;8320;-85
2023/07/13 03:25:47;;;;;;;;;;;;;;;;;;5013857;28;8419;-84
2023/07/13 03:28:14;;;;;;;;;;;;;;;;;;5014117;28;7021;-85
2023/07/13 03:30:41;;;;;;;;;;;;;;;;;;5013376;28;7179;-84
2023/07/13 03:33:07;;;;;;;;;;;;;;;;;;5013873;28;7089;-86
2023/07/13 03:35:34;;;;;;;;;;;;;;;;;;5013569;28;8360;-82
2023/07/13 03:38:00;;;;;;;;;;;;;;;;;;5013093;28;7174;-86
2023/07/13 03:40:28;;;;;;;;;;;;;;;;;;5014693;28;7147;-86
2023/07/13 03:42:53;;;;;;;;;;;;;;;;;;5013645;28;8428;-86
2023/07/13 03:45:19;;;;;;;;;;;;;;;;;;5013454;28;8670;-84
2023/07/13 03:47:45;;;;;;;;;;;;;;;;;;5013064;28;7158;-84
2023/07/13 03:50:11;;;;;;;;;;;;;;;;;;5013114;28;8393;-83
2023/07/13 03:52:36;;;;;;;;;;;;;;;;;;5010021;28;7100;-85
2023/07/13 03:55:02;;;;;;;;;;;;;;;;;;5010117;28;8301;-86
2023/07/13 03:57:28;;;;;;;;;;;;;;;;;;5010004;28;8466;-86
2023/07/13 03:59:54;;;;;;;;;;;;;;;;;;5010002;28;7392;-85
2023/07/13 04:02:19;;;;;;;;;;;;;;;;;;5009762;28;8448;-85
2023/07/13 04:04:45;;;;;;;;;;;;;;;;;;5009588;28;8661;-87
2023/07/13 04:07:12;;;;;;;;;;;;;;;;;;5009494;28;8403;-84
2023/07/13 04:09:37;;;;;;;;;;;;;;;;;;5009118;28;8817;-86
2023/07/13 04:12:03;;;;;;;;;;;;;;;;;;5009065;28;8399;-86
2023/07/13 04:14:29;;;;;;;;;;;;;;;;;;5008642;28;7031;-86
2023/07/13 04:16:54;;;;;;;;;;;;;;;;;;5009068;28;8447;-86
2023/07/13 04:19:20;;;;;;;;;;;;;;;;;;5008653;28;8554;-88
2023/07/13 04:21:47;;;;;;;;;;;;;;;;;;5009155;28;8530;-86
2023/07/13 04:24:12;;;;;;;;;;;;;;;;;;5008857;28;8413;-87
2023/07/13 04:26:39;;;;;;;;;;;;;;;;;;5009025;28;8419;-88
2023/07/13 04:29:05;;;;;;;;;;;;;;;;;;5009270;28;7099;-85
2023/07/13 04:31:32;;;;;;;;;;;;;;;;;;5008695;28;7156;-85
2023/07/13 04:33:57;;;;;;;;;;;;;;;;;;5008943;28;7218;-84
2023/07/13 04:36:26;;;;;;;;;;;;;;;;;;5008947;28;7053;-85
2023/07/13 04:38:53;;;;;;;;;;;;;;;;;;5008774;28;8324;-85
2023/07/13 04:41:20;;;;;;;;;;;;;;;;;;5008692;28;8380;-87
2023/07/13 04:43:46;;;;;;;;;;;;;;;;;;5008736;28;8350;-88
2023/07/13 04:46:13;;;;;;;;;;;;;;;;;;5008675;28;7035;-87
2023/07/13 04:48:39;;;;;;;;;;;;;;;;;;5008481;28;7477;-87
2023/07/13 04:51:04;;;;;;;;;;;;;;;;;;5008765;28;7230;-88
2023/07/13 04:53:32;;;;;;;;;;;;;;;;;;5008281;28;8451;-86
2023/07/13 04:55:58;;;;;;;;;;;;;;;;;;5008550;28;7311;-87
2023/07/13 04:58:24;;;;;;;;;;;;;;;;;;5008269;28;8363;-86
2023/07/13 05:00:50;;;;;;;;;;;;;;;;;;5008453;28;8570;-85
2023/07/13 05:03:16;;;;;;;;;;;;;;;;;;5008588;28;8464;-87
2023/07/13 05:05:42;;;;;;;;;;;;;;;;;;5008237;28;7227;-84
2023/07/13 05:08:07;;;;;;;;;;;;;;;;;;5008695;28;8460;-86
2023/07/13 05:10:33;;;;;;;;;;;;;;;;;;5009198;28;8518;-87
2023/07/13 05:12:58;;;;;;;;;;;;;;;;;;5009189;28;8343;-86
2023/07/13 05:15:25;;;;;;;;;;;;;;;;;;5008884;28;7283;-85
2023/07/13 05:17:51;;;;;;;;;;;;;;;;;;5008815;28;7112;-86
2023/07/13 05:20:17;;;;;;;;;;;;;;;;;;5008828;28;7046;-86
2023/07/13 05:22:43;;;;;;;;;;;;;;;;;;5008813;28;8514;-86
2023/07/13 05:25:09;;;;;;;;;;;;;;;;;;5008818;28;7749;-86
2023/07/13 05:27:35;;;;;;;;;;;;;;;;;;5008369;28;8502;-86
2023/07/13 05:30:02;;;;;;;;;;;;;;;;;;5008953;28;7597;-85
2023/07/13 05:32:30;;;;;;;;;;;;;;;;;;5008193;28;8648;-85
2023/07/13 05:34:56;;;;;;;;;;;;;;;;;;5008678;28;8604;-85
2023/07/13 05:37:22;;;;;;;;;;;;;;;;;;5008736;28;8450;-83
2023/07/13 05:39:48;;;;;;;;;;;;;;;;;;5008614;28;8785;-85
2023/07/13 05:42:13;;;;;;;;;;;;;;;;;;5008405;28;8558;-86
2023/07/13 05:44:39;;;;;;;;;;;;;;;;;;5008500;28;8894;-85
2023/07/13 05:47:05;;;;;;;;;;;;;;;;;;5008636;28;8562;-85
2023/07/13 05:49:30;;;;;;;;;;;;;;;;;;5008720;28;8514;-86
2023/07/13 05:51:57;;;;;;;;;;;;;;;;;;5008282;28;7604;-87
2023/07/13 05:54:22;;;;;;;;;;;;;;;;;;5008657;28;8481;-86
2023/07/13 05:56:48;;;;;;;;;;;;;;;;;;5008539;28;8510;-86
2023/07/13 05:59:14;;;;;;;;;;;;;;;;;;5008350;28;7176;-83
2023/07/13 06:01:42;;;;;;;;;;;;;;;;;;5005308;28;7235;-85
2023/07/13 06:04:25;;;;;;;;;;;;;;;;;;;;;
2023/07/13 06:06:51;;;;;;;;;;;;;;;;;;4976277;28;8180;-86
2023/07/13 06:09:16;;;;;;;;;;;;;;;;;;4991825;28;7219;-84
2023/07/13 06:11:42;;;;;;;;;;;;;;;;;;4992187;28;8678;-78
2023/07/13 06:14:07;;;;;;;;;;;;;;;;;;4993829;28;7553;-78
2023/07/13 06:16:33;;;;;;;;;;;;;;;;;;4996262;28;7483;-76
2023/07/13 06:18:58;;;;;;;;;;;;;;;;;;4992209;28;8484;-76
2023/07/13 06:21:24;;;;;;;;;;;;;;;;;;4992005;28;7104;-74
2023/07/13 06:23:51;;;;;;;;;;;;;;;;;;4991467;28;9329;-76
2023/07/13 06:26:17;;;;;;;;;;;;;;;;;;4990294;28;8477;-79
2023/07/13 06:28:43;;;;;;;;;;;;;;;;;;5008205;28;7073;-76
2023/07/13 06:31:10;;;;;;;;;;;;;;;;;;5008344;28;8709;-78
2023/07/13 06:33:37;;;;;;;;;;;;;;;;;;5008195;28;7193;-77
2023/07/13 06:36:04;;;;;;;;;;;;;;;;;;5007789;28;7343;-78
2023/07/13 06:38:30;;;;;;;;;;;;;;;;;;5008180;28;7094;-75
2023/07/13 06:40:55;;;;;;;;;;;;;;;;;;5007793;28;8692;-78
2023/07/13 06:43:21;;;;;;;;;;;;;;;;;;5007753;28;8458;-79
2023/07/13 06:45:48;;;;;;;;;;;;;;;;;;5007809;28;7103;-79
2023/07/13 06:48:14;;;;;;;;;;;;;;;;;;5007816;28;7085;-76
2023/07/13 06:50:41;;;;;;;;;;;;;;;;;;5008032;28;8456;-75
2023/07/13 06:53:07;;;;;;;;;;;;;;;;;;5007345;28;8745;-76
2023/07/13 06:55:32;;;;;;;;;;;;;;;;;;5008127;28;7290;-78
2023/07/13 06:57:58;;;;;;;;;;;;;;;;;;5007644;28;8361;-79
2023/07/13 07:00:23;;;;;;;;;;;;;;;;;;5007514;28;8685;-78
2023/07/13 07:02:49;;;;;;;;;;;;;;;;;;5007483;28;7304;-77
2023/07/13 07:05:15;;;;;;;;;;;;;;;;;;5007352;28;8503;-78
2023/07/13 07:07:40;;;;;;;;;;;;;;;;;;5007536;28;7085;-77
2023/07/13 07:10:06;;;;;;;;;;;;;;;;;;5007333;28;8471;-78
2023/07/13 07:12:32;;;;;;;;;;;;;;;;;;5014760;28;7161;-77
2023/07/13 07:14:57;;;;;;;;;;;;;;;;;;4995762;28;8731;-78
2023/07/13 07:17:23;;;;;;;;;;;;;;;;;;4990892;28;7111;-76
2023/07/13 07:19:48;;;;;;;;;;;;;;;;;;4990727;28;7104;-78
2023/07/13 07:22:13;;;;;;;;;;;;;;;;;;4992465;28;8594;-75
2023/07/13 07:24:39;;;;;;;;;;;;;;;;;;5000723;28;7243;-76
2023/07/13 07:27:04;;;;;;;;;;;;;;;;;;4993527;28;8763;-78
2023/07/13 07:29:30;;;;;;;;;;;;;;;;;;5009798;28;7058;-76
2023/07/13 07:31:55;;;;;;;;;;;;;;;;;;5009919;28;8721;-78
2023/07/13 07:34:21;;;;;;;;;;;;;;;;;;5010628;28;8452;-79
2023/07/13 07:36:46;;;;;;;;;;;;;;;;;;5009762;28;7741;-77
2023/07/13 07:39:12;;;;;;;;;;;;;;;;;;5006842;28;7174;-78
2023/07/13 07:41:38;;;;;;;;;;;;;;;;;;4990242;28;7065;-76
2023/07/13 07:44:04;;;;;;;;;;;;;;;;;;4990335;28;9507;-78
2023/07/13 07:46:30;;;;;;;;;;;;;;;;;;4990798;28;7084;-78
2023/07/13 07:48:56;;;;;;;;;;;;;;;;;;4989195;28;7935;-78
2023/07/13 07:51:22;;;;;;;;;;;;;;;;;;4990100;28;7213;-78
2023/07/13 07:53:47;;;;;;;;;;;;;;;;;;5000181;28;8449;-78
2023/07/13 07:56:13;;;;;;;;;;;;;;;;;;4989547;28;8486;-76
2023/07/13 07:58:38;;;;;;;;;;;;;;;;;;4992072;28;8785;-78
2023/07/13 08:01:05;;;;;;;;;;;;;;;;;;4997981;28;7267;-77
2023/07/13 08:03:32;;;;;;;;;;;;;;;;;;4990757;28;7222;-77
2023/07/13 08:05:58;;;;;;;;;;;;;;;;;;4973437;28;7239;-74
2023/07/13 08:08:24;;;;;;;;;;;;;;;;;;4977210;28;7298;-78
2023/07/13 08:10:50;;;;;;;;;;;;;;;;;;5004043;28;8426;-77
2023/07/13 08:13:15;;;;;;;;;;;;;;;;;;4999232;28;8496;-78
2023/07/13 08:15:40;;;;;;;;;;;;;;;;;;4990236;28;7067;-78
2023/07/13 08:18:08;;;;;;;;;;;;;;;;;;4989911;28;8867;-76
2023/07/13 08:20:36;;;;;;;;;;;;;;;;;;4990037;28;8380;-77
2023/07/13 08:23:01;;;;;;;;;;;;;;;;;;4989206;28;8726;-76
2023/07/13 08:25:27;;;;;;;;;;;;;;;;;;4989867;28;8413;-77
2023/07/13 08:27:52;;;;;;;;;;;;;;;;;;4990005;28;7180;-79
2023/07/13 08:30:18;;;;;;;;;;;;;;;;;;4989899;28;8872;-77
2023/07/13 08:32:44;;;;;;;;;;;;;;;;;;5005238;28;8460;-78
2023/07/13 08:35:09;;;;;;;;;;;;;;;;;;4994768;28;8783;-77
2023/07/13 08:37:35;;;;;;;;;;;;;;;;;;5000423;28;7138;-77
2023/07/13 08:40:00;;;;;;;;;;;;;;;;;;5008601;28;8729;-78
2023/07/13 08:42:32;;;;;;;;;;;;;;;;;;5008975;28;8592;-79
2023/07/13 08:45:13;;;;;;;;;;;;;;;;;;5008775;28;7240;-80
2023/07/13 08:47:44;;;;;;;;;;;;;;;;;;5009447;28;8382;-80
2023/07/13 08:50:13;;;;;;;;;;;;;;;;;;5009070;28;6875;-80
2023/07/13 08:52:41;;;;;;;;;;;;;;;;;;5008154;28;8693;-80
2023/07/13 08:55:14;;;;;;;;;;;;;;;;;;5002968;28;7233;-79
2023/07/13 08:57:42;;;;;;;;;;;;;;;;;;5002286;28;8474;-78
2023/07/13 09:00:12;;;;;;;;;;;;;;;;;;4993514;28;9350;-80
2023/07/13 09:02:43;;;;;;;;;;;;;;;;;;5005926;28;7097;-80
2023/07/13 09:05:16;;;;;;;;;;;;;;;;;;5002649;28;8716;-78
2023/07/13 09:07:51;;;;;;;;;;;;;;;;;;5003096;28;7564;-79
2023/07/13 09:10:40;;;;;;;;;;;;;;;;;;5008673;28;8493;-78
2023/07/13 09:13:20;;;;;;;;;;;;;;;;;;5000152;28;7418;-78
2023/07/13 09:15:48;;;;;;;;;;;;;;;;;;4988965;28;8680;-80
2023/07/13 09:18:28;;;;;;;;;;;;;;;;;;4989410;28;8781;-81
2023/07/13 09:20:57;;;;;;;;;;;;;;;;;;4989664;28;7094;-81
2023/07/13 09:23:24;;;;;;;;;;;;;;;;;;4988974;28;7323;-80
2023/07/13 09:25:59;;;;;;;;;;;;;;;;;;4989034;28;7297;-79
2023/07/13 09:28:34;;;;;;;;;;;;;;;;;;4989467;28;7415;-78
2023/07/13 09:31:12;;;;;;;;;;;;;;;;;;4989313;28;6928;-81
2023/07/13 09:33:38;;;;;;;;;;;;;;;;;;4989112;28;8535;-81
2023/07/13 09:36:24;;;;;;;;;;;;;;;;;;4992192;28;7432;-78
2023/07/13 09:38:56;;;;;;;;;;;;;;;;;;4992358;28;7240;-80
2023/07/13 09:41:38;;;;;;;;;;;;;;;;;;4992295;28;8463;-78
2023/07/13 09:44:14;;;;;;;;;;;;;;;;;;4992543;28;7300;-80
2023/07/13 09:46:45;;;;;;;;;;;;;;;;;;4999662;28;6956;-80
2023/07/13 09:49:11;;;;;;;;;;;;;;;;;;5012245;28;8515;-80
2023/07/13 09:51:38;;;;;;;;;;;;;;;;;;5013123;28;8990;-79
2023/07/13 09:54:04;;;;;;;;;;;;;;;;;;5015128;28;8892;-80
2023/07/13 09:56:30;;;;;;;;;;;;;;;;;;5014929;28;8736;-81
2023/07/13 09:58:57;;;;;;;;;;;;;;;;;;5014611;28;8598;-80
2023/07/13 10:01:33;;;;;;;;;;;;;;;;;;5014422;28;7239;-80
2023/07/13 10:03:59;;;;;;;;;;;;;;;;;;5014905;28;7611;-80
2023/07/13 10:06:26;;;;;;;;;;;;;;;;;;5014839;28;7169;-81
2023/07/13 10:08:52;;;;;;;;;;;;;;;;;;5013203;28;8800;-80
2023/07/13 10:11:26;;;;;;;;;;;;;;;;;;4997441;28;8521;-81
2023/07/13 10:13:55;;;;;;;;;;;;;;;;;;4997437;28;7189;-76
2023/07/13 10:16:22;;;;;;;;;;;;;;;;;;4997687;28;7082;-77
2023/07/13 10:18:50;;;;;;;;;;;;;;;;;;4997343;28;7235;-78
2023/07/13 10:21:18;;;;;;;;;;;;;;;;;;4997123;28;7272;-77
2023/07/13 10:23:47;;;;;;;;;;;;;;;;;;4997873;28;7177;-78
2023/07/13 10:26:17;;;;;;;;;;;;;;;;;;4998740;28;7103;-77
2023/07/13 10:28:47;;;;;;;;;;;;;;;;;;4998402;28;8411;-78
2023/07/13 10:31:16;;;;;;;;;;;;;;;;;;4998147;28;7262;-77
2023/07/13 10:33:42;;;;;;;;;;;;;;;;;;4998176;28;7243;-78
2023/07/13 10:36:12;;;;;;;;;;;;;;;;;;4998338;28;8843;-77
2023/07/13 10:38:38;;;;;;;;;;;;;;;;;;5014120;28;7426;-77
2023/07/13 10:41:07;;;;;;;;;;;;;;;;;;4997883;28;8532;-78
2023/07/13 10:43:39;;;;;;;;;;;;;;;;;;4998188;28;9107;-76
2023/07/13 10:46:11;;;;;;;;;;;;;;;;;;4997761;28;7293;-79
2023/07/13 10:48:39;;;;;;;;;;;;;;;;;;4997989;28;8490;-78
2023/07/13 10:51:07;;;;;;;;;;;;;;;;;;4997635;28;7197;-76
2023/07/13 10:53:36;;;;;;;;;;;;;;;;;;4997712;28;7282;-78
2023/07/13 10:56:05;;;;;;;;;;;;;;;;;;4997859;28;7117;-78
2023/07/13 10:58:37;;;;;;;;;;;;;;;;;;4997541;28;8896;-76
2023/07/13 11:01:07;;;;;;;;;;;;;;;;;;5013926;28;7143;-78
2023/07/13 11:03:52;;;;;;;;;;;;;;;;;;4997530;28;8556;-78
2023/07/13 11:06:21;;;;;;;;;;;;;;;;;;5029779;28;8906;-77
2023/07/13 11:08:47;;;;;;;;;;;;;;;;;;5011147;28;8368;-77
2023/07/13 11:11:22;;;;;;;;;;;;;;;;;;5003951;28;7218;-77
2023/07/13 11:13:50;;;;;;;;;;;;;;;;;;5006417;28;7116;-78
2023/07/13 11:16:22;;;;;;;;;;;;;;;;;;5008484;28;8502;-78
2023/07/13 11:18:50;;;;;;;;;;;;;;;;;;5004649;28;7245;-78
2023/07/13 11:21:26;;;;;;;;;;;;;;;;;;5001826;28;7922;-77
2023/07/13 11:24:02;;;;;;;;;;;;;;;;;;5015554;28;7289;-77
2023/07/13 11:26:42;;;;;;;;;;;;;;;;;;5010461;28;7186;-79
2023/07/13 11:29:27;;;;;;;;;;;;;;;;;;5010386;28;8477;-77
2023/07/13 11:31:54;;;;;;;;;;;;;;;;;;4970577;28;8719;-79
2023/07/13 11:34:40;;;;;;;;;;;;;;;;;;5011843;28;8857;-76
2023/07/13 11:37:13;;;;;;;;;;;;;;;;;;5029185;28;7104;-77
2023/07/13 11:39:42;;;;;;;;;;;;;;;;;;5013697;28;8369;-77
2023/07/13 11:42:12;;;;;;;;;;;;;;;;;;5013715;28;7120;-78
2023/07/13 11:44:43;;;;;;;;;;;;;;;;;;5013186;28;7214;-76
2023/07/13 11:47:17;;;;;;;;;;;;;;;;;;5013273;28;9041;-77
2023/07/13 11:49:47;;;;;;;;;;;;;;;;;;5013267;28;7249;-77
2023/07/13 11:52:18;;;;;;;;;;;;;;;;;;5012903;28;9019;-78
2023/07/13 11:54:55;;;;;;;;;;;;;;;;;;5013172;28;9825;-77
2023/07/13 11:57:33;;;;;;;;;;;;;;;;;;5012205;28;7088;-78
2023/07/13 12:00:01;;;;;;;;;;;;;;;;;;5013387;28;8374;-77
2023/07/13 12:02:33;;;;;;;;;;;;;;;;;;5013773;28;7120;-80
2023/07/13 12:05:03;;;;;;;;;;;;;;;;;;5014087;28;8478;-79
2023/07/13 12:07:31;;;;;;;;;;;;;;;;;;4997340;28;6937;-82
2023/07/13 12:10:02;;;;;;;;;;;;;;;;;;5000007;28;8535;-81
2023/07/13 12:12:29;;;;;;;;;;;;;;;;;;5009692;28;9111;-82
2023/07/13 12:14:54;;;;;;;;;;;;;;;;;;5021642;28;7120;-83
2023/07/13 12:17:22;;;;;;;;;;;;;;;;;;5012316;28;7516;-83
2023/07/13 12:19:48;;;;;;;;;;;;;;;;;;5012132;28;7167;-81
2023/07/13 12:22:16;;;;;;;;;;;;;;;;;;5011461;28;7277;-82
2023/07/13 12:24:43;;;;;;;;;;;;;;;;;;4998704;28;8434;-84
2023/07/13 12:27:21;;;;;;;;;;;;;;;;;;4992986;28;8500;-82
2023/07/13 12:29:53;;;;;;;;;;;;;;;;;;5005302;28;9012;-84
2023/07/13 12:32:19;;;;;;;;;;;;;;;;;;5018455;28;8920;-82
2023/07/13 12:34:55;;;;;;;;;;;;;;;;;;5019766;28;8450;-79
2023/07/13 12:37:22;;;;;;;;;;;;;;;;;;5028637;28;7576;-81
2023/07/13 12:39:49;;;;;;;;;;;;;;;;;;4995590;28;8611;-81
2023/07/13 12:42:25;;;;;;;;;;;;;;;;;;4996037;28;8488;-83
2023/07/13 12:44:54;;;;;;;;;;;;;;;;;;4995598;28;8396;-84
2023/07/13 12:47:20;;;;;;;;;;;;;;;;;;4996235;28;7134;-81
2023/07/13 12:49:50;;;;;;;;;;;;;;;;;;4995633;28;8489;-82
2023/07/13 12:52:20;;;;;;;;;;;;;;;;;;4995532;28;8653;-82
2023/07/13 12:54:53;;;;;;;;;;;;;;;;;;4995950;28;7463;-83
2023/07/13 12:57:19;;;;;;;;;;;;;;;;;;5011506;28;8783;-82
2023/07/13 12:59:44;;;;;;;;;;;;;;;;;;5011980;28;8465;-82
2023/07/13 13:02:32;;;;;;;;;;;;;;;;;;5011769;28;7330;-82
2023/07/13 13:04:58;;;;;;;;;;;;;;;;;;5010255;28;8818;-82
2023/07/13 13:07:25;;;;;;;;;;;;;;;;;;5000299;28;8689;-83
2023/07/13 13:09:53;;;;;;;;;;;;;;;;;;4994876;28;8681;-81
2023/07/13 13:12:19;;;;;;;;;;;;;;;;;;4996453;28;8488;-82
2023/07/13 13:14:45;;;;;;;;;;;;;;;;;;4997433;28;7131;-81
2023/07/13 13:17:24;;;;;;;;;;;;;;;;;;5018190;28;9252;-80
2023/07/13 13:19:52;;;;;;;;;;;;;;;;;;4996238;28;7138;-82
2023/07/13 13:22:18;;;;;;;;;;;;;;;;;;4995938;28;7277;-82
2023/07/13 13:24:44;;;;;;;;;;;;;;;;;;4996150;28;7254;-82
2023/07/13 13:27:16;;;;;;;;;;;;;;;;;;4996144;28;7139;-81
2023/07/13 13:29:42;;;;;;;;;;;;;;;;;;4980125;28;8930;-81
2023/07/13 13:32:11;;;;;;;;;;;;;;;;;;4996765;28;8786;-84
2023/07/13 13:34:37;;;;;;;;;;;;;;;;;;5023665;28;8573;-83
2023/07/13 13:37:03;;;;;;;;;;;;;;;;;;5006947;28;8956;-81
2023/07/13 13:39:39;;;;;;;;;;;;;;;;;;5023498;28;8493;-82
2023/07/13 13:42:05;;;;;;;;;;;;;;;;;;5003570;28;8502;-83
2023/07/13 13:44:30;;;;;;;;;;;;;;;;;;5004271;28;8420;-82
2023/07/13 13:46:57;;;;;;;;;;;;;;;;;;4995727;28;8863;-83
2023/07/13 13:49:25;;;;;;;;;;;;;;;;;;4995842;28;8616;-81
2023/07/13 13:51:51;;;;;;;;;;;;;;;;;;4995303;28;7260;-82
2023/07/13 13:54:18;;;;;;;;;;;;;;;;;;4995710;28;8760;-81
2023/07/13 13:56:47;;;;;;;;;;;;;;;;;;4996081;28;7189;-82
2023/07/13 13:59:14;;;;;;;;;;;;;;;;;;4995443;28;8406;-82
2023/07/13 14:01:42;;;;;;;;;;;;;;;;;;4995723;28;8904;-82
2023/07/13 14:04:14;;;;;;;;;;;;;;;;;;4995336;28;8774;-82
2023/07/13 14:06:40;;;;;;;;;;;;;;;;;;4995465;28;8831;-82
2023/07/13 14:09:10;;;;;;;;;;;;;;;;;;4995530;28;8465;-79
2023/07/13 14:11:37;;;;;;;;;;;;;;;;;;4995283;28;9302;-81
2023/07/13 14:14:04;;;;;;;;;;;;;;;;;;4994962;28;8377;-81
2023/07/13 14:16:31;;;;;;;;;;;;;;;;;;4995016;28;8523;-81
2023/07/13 14:18:59;;;;;;;;;;;;;;;;;;4995427;28;7127;-81
2023/07/13 14:21:27;;;;;;;;;;;;;;;;;;4994195;28;8698;-80
2023/07/13 14:23:53;;;;;;;;;;;;;;;;;;4995064;28;8977;-80
2023/07/13 14:26:20;;;;;;;;;;;;;;;;;;5011873;28;8767;-80
2023/07/13 14:28:48;;;;;;;;;;;;;;;;;;5011359;28;8843;-80
2023/07/13 14:31:16;;;;;;;;;;;;;;;;;;5011111;28;9049;-82
2023/07/13 14:33:42;;;;;;;;;;;;;;;;;;5025520;28;8539;-80
2023/07/13 14:36:27;;;;;;;;;;;;;;;;;;5021196;28;8514;-83
2023/07/13 14:38:57;;;;;;;;;;;;;;;;;;5021221;28;7264;-82
2023/07/13 14:41:22;;;;;;;;;;;;;;;;;;4994342;28;8584;-83
2023/07/13 14:43:51;;;;;;;;;;;;;;;;;;4994334;28;8471;-81
2023/07/13 14:46:36;;;;;;;;;;;;;;;;;;4986028;28;8897;-83
2023/07/13 14:49:11;;;;;;;;;;;;;;;;;;5030585;28;8521;-83
2023/07/13 14:51:36;;;;;;;;;;;;;;;;;;4997743;28;8590;-83
2023/07/13 14:54:05;;;;;;;;;;;;;;;;;;4997837;28;7107;-83
2023/07/13 14:56:30;;;;;;;;;;;;;;;;;;4991814;28;7272;-82
2023/07/13 14:58:56;;;;;;;;;;;;;;;;;;5002681;28;8721;-83
2023/07/13 15:01:22;;;;;;;;;;;;;;;;;;4995449;28;8492;-88
2023/07/13 15:03:49;;;;;;;;;;;;;;;;;;4995532;28;8390;-90
2023/07/13 15:06:15;;;;;;;;;;;;;;;;;;4995258;28;8527;-89
2023/07/13 15:08:41;;;;;;;;;;;;;;;;;;4997887;28;8481;-89
2023/07/13 15:11:07;;;;;;;;;;;;;;;;;;4997587;28;7236;-87
2023/07/13 15:13:34;;;;;;;;;;;;;;;;;;5014016;28;8582;-87
2023/07/13 15:16:01;;;;;;;;;;;;;;;;;;5014915;28;8592;-86
2023/07/13 15:18:27;;;;;;;;;;;;;;;;;;5013628;28;7267;-85
2023/07/13 15:20:55;;;;;;;;;;;;;;;;;;5013816;28;8513;-86
2023/07/13 15:23:22;;;;;;;;;;;;;;;;;;5014110;28;7152;-84
2023/07/13 15:25:49;;;;;;;;;;;;;;;;;;4997485;28;7279;-87
2023/07/13 15:28:15;;;;;;;;;;;;;;;;;;5013475;28;8735;-87
2023/07/13 15:30:43;;;;;;;;;;;;;;;;;;5013770;28;7181;-87
2023/07/13 15:33:36;;;;;;;;;;;;;;;;;;4999002;28;8584;-87
2023/07/13 15:36:04;;;;;;;;;;;;;;;;;;4995866;28;8987;-86
2023/07/13 15:38:31;;;;;;;;;;;;;;;;;;5002452;28;8893;-85
2023/07/13 15:41:32;;;;;;;;;;;;;;;;;;5016916;28;8919;-82
2023/07/13 15:47:03;;;;;;;;;;;;;;;;;;4943760;29;6797;-88
2023/07/13 15:49:28;;;;;;;;;;;;;;;;;;4941513;29;8431;-90
2023/07/13 15:51:55;;;;;;;;;;;;;;;;;;4937578;29;7299;-88
2023/07/13 15:54:20;;;;;;;;;;;;;;;;;;4934792;29;9037;-87
2023/07/13 15:56:51;;;;;;;;;;;;;;;;;;4934571;29;7321;-87
2023/07/13 15:59:17;;;;;;;;;;;;;;;;;;4934946;29;8534;-86
2023/07/13 16:01:46;;;;;;;;;;;;;;;;;;4934649;29;7119;-89
2023/07/13 16:04:11;;;;;;;;;;;;;;;;;;4934832;29;7153;-90
2023/07/13 16:06:40;;;;;;;;;;;;;;;;;;4934402;29;7093;-88
2023/07/13 16:09:26;;;;;;;;;;;;;;;;;;4935251;29;7147;-81
2023/07/13 16:11:52;;;;;;;;;;;;;;;;;;4934821;29;9203;-84
2023/07/13 16:14:18;;;;;;;;;;;;;;;;;;4934615;29;7173;-86
2023/07/13 16:16:45;;;;;;;;;;;;;;;;;;4934352;29;9039;-85
2023/07/13 16:19:11;;;;;;;;;;;;;;;;;;4996741;28;8525;-88
2023/07/13 16:21:43;;;;;;;;;;;;;;;;;;4996347;28;6928;-87
2023/07/13 16:24:16;;;;;;;;;;;;;;;;;;4996581;28;7144;-87
2023/07/13 16:26:44;;;;;;;;;;;;;;;;;;4996351;28;8839;-86
2023/07/13 16:29:13;;;;;;;;;;;;;;;;;;4996427;28;8796;-87
2023/07/13 16:31:39;;;;;;;;;;;;;;;;;;5013894;28;7263;-83
2023/07/13 16:34:05;;;;;;;;;;;;;;;;;;5016769;28;7111;-89
2023/07/13 16:36:32;;;;;;;;;;;;;;;;;;4996462;28;9100;-88
2023/07/13 16:38:58;;;;;;;;;;;;;;;;;;5012837;28;8828;-88
2023/07/13 16:41:24;;;;;;;;;;;;;;;;;;4996281;28;8614;-89
2023/07/13 16:43:49;;;;;;;;;;;;;;;;;;4995376;28;8643;-91
2023/07/13 16:46:21;;;;;;;;;;;;;;;;;;4996191;28;7514;-90
2023/07/13 16:48:46;;;;;;;;;;;;;;;;;;5012503;28;8603;-90
2023/07/13 16:51:12;;;;;;;;;;;;;;;;;;4996480;28;8770;-88
2023/07/13 16:53:39;;;;;;;;;;;;;;;;;;4993112;28;8546;-89
2023/07/13 16:56:15;;;;;;;;;;;;;;;;;;5009916;28;7073;-86
2023/07/13 16:58:40;;;;;;;;;;;;;;;;;;5009156;28;7101;-84
2023/07/13 17:01:05;;;;;;;;;;;;;;;;;;5008957;28;8841;-87
2023/07/13 17:03:32;;;;;;;;;;;;;;;;;;5009456;28;8724;-86
2023/07/13 17:06:01;;;;;;;;;;;;;;;;;;5015096;28;8447;-85
2023/07/13 17:08:32;;;;;;;;;;;;;;;;;;5009172;28;7327;-85
2023/07/13 17:10:59;;;;;;;;;;;;;;;;;;5008737;28;9369;-89